Savanna, Oklahoma
Current Conditions -  °F | °C
As of 12:53 PM on Thursday 23 Oct 2014 (Local Time) from KMLC Reporting Station
Moderate Rain Moderate Rain  
Wind Chill: 58°   Ceiling: 5500
Heat Index: 58°   Visibility: 3mi
Dew Point: 55°   Wind: 5mph
Humidity: 90%   Direction: 110°ESE
Pressure: 30.18"   Gusts: NA
Location:  34.83°N, 95.84°W
Report Text: KMLC 231753Z AUTO 11004KT 3SM RA BR BKN055 BKN070 OVC110 14/13 A3018 RMK AO2 SLP214 P0010 60011 T01440128 10167 20144 58005
Loading
Personal Weather Stations






























Interactive Weather Map
Tropical Storm Tracking
New forecast layout! Learn more

10-Day Weather Forecast

Advertisements
Track Severe Weather on mobile